createdAt,value
2022-08-09T00:00:13.373Z,73.78
2022-08-09T00:02:49.013Z,73.72
2022-08-09T00:06:17.698Z,74.08
2022-08-09T00:08:10.204Z,74.38
2022-08-09T00:10:38.624Z,74.44
2022-08-09T00:13:08.431Z,74.36
2022-08-09T00:15:58.944Z,74.39
2022-08-09T00:18:29.629Z,74.80
2022-08-09T00:20:57.929Z,74.58
2022-08-09T00:23:58.208Z,74.59
2022-08-09T00:26:12.180Z,74.96
2022-08-09T00:28:40.556Z,74.87
2022-08-09T00:31:30.658Z,75.12
2022-08-09T00:33:55.314Z,75.38
2022-08-09T00:36:29.677Z,75.64
2022-08-09T00:38:57.766Z,75.77
2022-08-09T00:44:11.080Z,75.45
2022-08-09T00:44:25.081Z,75.67
2022-08-09T00:47:04.775Z,75.69
2022-08-09T00:49:36.612Z,75.62
2022-08-09T00:52:06.114Z,75.40
2022-08-09T00:54:43.077Z,75.61
2022-08-09T00:57:11.443Z,75.79
2022-08-09T00:59:46.621Z,76.04
2022-08-09T01:02:24.133Z,75.92
2022-08-09T01:05:02.612Z,75.82
2022-08-09T01:08:01.055Z,75.33
2022-08-09T01:10:39.573Z,75.31
2022-08-09T01:13:53.270Z,75.47
2022-08-09T01:16:24.906Z,74.85
2022-08-09T01:19:01.896Z,74.98
2022-08-09T01:21:50.838Z,75.15
2022-08-09T01:24:25.639Z,75.33
2022-08-09T01:27:13.410Z,75.27
2022-08-09T01:29:55.751Z,75.94
2022-08-09T01:32:31.575Z,76.38
2022-08-09T01:35:17.945Z,76.22
2022-08-09T01:38:08.208Z,76.07
2022-08-09T01:40:42.935Z,76.71
2022-08-09T01:43:11.095Z,77.15
2022-08-09T01:45:46.161Z,77.08
2022-08-09T01:48:17.080Z,77.12
2022-08-09T01:50:55.168Z,77.43
2022-08-09T01:53:23.229Z,77.50
2022-08-09T01:55:52.419Z,77.65
2022-08-09T01:58:24.308Z,77.87
2022-08-09T02:00:53.467Z,77.71
2022-08-09T02:03:21.559Z,77.86
2022-08-09T02:06:03.528Z,77.83
2022-08-09T02:08:57.119Z,78.14
2022-08-09T02:11:25.138Z,77.89
2022-08-09T02:14:10.829Z,77.88
2022-08-09T02:16:59.652Z,77.79
2022-08-09T02:19:38.679Z,78.33
2022-08-09T02:22:16.874Z,78.24
2022-08-09T02:24:52.015Z,78.33
2022-08-09T02:27:27.469Z,78.45
2022-08-09T02:30:09.578Z,78.43
2022-08-09T02:32:43.151Z,78.59
2022-08-09T02:35:19.296Z,78.57
2022-08-09T02:37:53.037Z,78.59
2022-08-09T02:40:25.027Z,78.55
2022-08-09T02:43:00.984Z,78.99
2022-08-09T02:45:32.928Z,79.25
2022-08-09T02:48:03.795Z,79.27
2022-08-09T02:50:36.410Z,79.43
2022-08-09T02:53:07.991Z,79.71
2022-08-09T02:55:57.618Z,79.86
2022-08-09T02:58:35.413Z,79.55
2022-08-09T03:01:10.634Z,79.65
2022-08-09T03:04:16.861Z,80.12
2022-08-09T03:06:29.008Z,80.47
2022-08-09T03:08:57.222Z,80.45
2022-08-09T03:12:04.739Z,80.62
2022-08-09T03:14:12.784Z,80.63
2022-08-09T03:16:44.706Z,80.71
2022-08-09T03:19:16.694Z,80.18
2022-08-09T03:21:59.905Z,80.28
2022-08-09T03:24:42.274Z,80.36
2022-08-09T03:27:10.874Z,80.09
2022-08-09T03:29:57.185Z,80.43
2022-08-09T03:32:27.611Z,80.51
2022-08-09T03:34:55.867Z,80.65
2022-08-09T03:37:58.292Z,80.43
2022-08-09T03:40:13.192Z,80.19
2022-08-09T03:42:40.031Z,80.30
2022-08-09T03:45:10.804Z,80.35
2022-08-09T03:47:40.268Z,80.55
2022-08-09T03:50:11.013Z,80.54
2022-08-09T03:52:40.513Z,80.89
2022-08-09T03:55:10.565Z,80.65
2022-08-09T03:57:53.394Z,80.62
2022-08-09T04:00:24.254Z,80.75
2022-08-09T04:02:54.427Z,80.76
2022-08-09T04:05:27.346Z,80.87
2022-08-09T04:07:57.139Z,80.96
2022-08-09T04:10:29.296Z,80.85
2022-08-09T04:12:58.186Z,80.60
2022-08-09T04:15:42.648Z,80.45
2022-08-09T04:18:17.821Z,80.51
2022-08-09T04:20:48.048Z,80.47
2022-08-09T04:23:17.353Z,80.49
2022-08-09T04:25:51.826Z,80.48
2022-08-09T04:28:33.483Z,80.73
2022-08-09T04:31:07.751Z,81.43
2022-08-09T04:33:52.308Z,81.61
2022-08-09T04:36:25.595Z,81.42
2022-08-09T04:38:53.454Z,81.08
2022-08-09T04:41:23.854Z,81.18
2022-08-09T04:44:07.065Z,81.37
2022-08-09T04:46:58.786Z,81.25
2022-08-09T04:49:40.933Z,81.10
2022-08-09T04:52:22.021Z,81.40
2022-08-09T04:54:53.594Z,81.20
2022-08-09T04:57:24.024Z,81.44
2022-08-09T04:59:53.448Z,81.23
2022-08-09T05:02:20.058Z,81.34
2022-08-09T05:04:47.413Z,80.96
2022-08-09T05:07:18.952Z,80.82
2022-08-09T05:09:49.721Z,81.00
2022-08-09T05:12:16.846Z,81.40
2022-08-09T05:14:43.366Z,81.17
2022-08-09T05:17:15.330Z,81.55
2022-08-09T05:19:56.948Z,81.36
2022-08-09T05:22:34.944Z,81.47
2022-08-09T05:25:12.195Z,81.12
2022-08-09T05:27:46.380Z,81.05
2022-08-09T05:30:15.315Z,81.11
2022-08-09T05:32:45.273Z,80.97
2022-08-09T05:35:17.898Z,80.74
2022-08-09T05:37:47.674Z,81.07
2022-08-09T05:40:15.257Z,81.12
2022-08-09T05:42:42.770Z,80.95
2022-08-09T05:45:10.235Z,80.58
2022-08-09T05:47:51.544Z,80.46
2022-08-09T05:50:32.393Z,80.66
2022-08-09T05:53:05.750Z,80.85
2022-08-09T05:55:38.525Z,80.54
2022-08-09T05:58:07.232Z,80.43
2022-08-09T06:00:34.032Z,80.87
2022-08-09T06:03:02.407Z,80.62
2022-08-09T06:05:57.100Z,80.72
2022-08-09T06:08:24.191Z,80.16
2022-08-09T06:10:53.201Z,79.98
2022-08-09T06:13:20.581Z,79.98
2022-08-09T06:15:52.310Z,80.18
2022-08-09T06:18:25.237Z,79.89
2022-08-09T06:20:57.222Z,79.94
2022-08-09T06:23:57.168Z,79.41
2022-08-09T06:26:14.531Z,79.85
2022-08-09T06:28:43.453Z,80.23
2022-08-09T06:31:11.075Z,79.88
2022-08-09T06:33:41.047Z,79.23
2022-08-09T06:36:09.288Z,79.31
2022-08-09T06:38:37.441Z,79.09
2022-08-09T06:41:09.420Z,79.20
2022-08-09T06:43:46.211Z,79.19
2022-08-09T06:46:13.173Z,78.69
2022-08-09T06:49:00.394Z,78.65
2022-08-09T06:51:28.018Z,78.61
2022-08-09T06:53:55.398Z,77.90
2022-08-09T06:56:30.678Z,77.32
2022-08-09T07:00:56.901Z,77.48
2022-08-09T07:01:57.835Z,76.91
2022-08-09T07:04:30.531Z,76.21
2022-08-09T07:07:00.120Z,75.91
2022-08-09T07:09:57.345Z,75.81
2022-08-09T07:12:18.072Z,74.91
2022-08-09T07:14:50.615Z,74.27
2022-08-09T07:17:21.526Z,74.57
2022-08-09T07:19:50.784Z,74.35
2022-08-09T07:22:27.274Z,73.78
2022-08-09T07:25:02.117Z,73.57
2022-08-09T07:27:34.266Z,73.03
2022-08-09T07:30:09.732Z,72.67
2022-08-09T07:32:36.672Z,72.13
2022-08-09T07:35:10.189Z,71.85
2022-08-09T07:37:43.671Z,71.30
2022-08-09T07:40:13.688Z,71.03
2022-08-09T07:43:02.343Z,70.76
2022-08-09T07:45:39.918Z,70.64
2022-08-09T07:48:29.652Z,69.00
2022-08-09T07:51:03.061Z,68.37
2022-08-09T07:54:06.566Z,68.86
2022-08-09T07:56:31.701Z,68.52
2022-08-09T07:58:59.476Z,67.70
2022-08-09T08:01:32.847Z,66.60
2022-08-09T08:04:01.231Z,65.56
2022-08-09T08:06:31.936Z,66.82
2022-08-09T08:09:03.946Z,65.45
2022-08-09T08:12:23.941Z,65.03
2022-08-09T08:14:17.808Z,64.58
2022-08-09T08:16:51.068Z,63.39
2022-08-09T08:19:31.088Z,61.96
2022-08-09T08:21:58.088Z,60.12
2022-08-09T08:24:25.278Z,60.50
2022-08-09T08:27:04.908Z,59.31
2022-08-09T08:29:48.797Z,60.30
2022-08-09T08:32:24.223Z,56.82
2022-08-09T08:34:58.516Z,57.39
2022-08-09T08:37:40.800Z,57.44
2022-08-09T08:40:09.334Z,57.30
2022-08-09T08:42:37.489Z,54.79
2022-08-09T08:45:11.803Z,55.82
2022-08-09T08:47:42.917Z,54.17
2022-08-09T08:50:15.555Z,57.09
2022-08-09T08:52:57.907Z,55.49
2022-08-09T08:55:27.485Z,54.45
2022-08-09T08:57:58.535Z,53.69
2022-08-09T09:00:30.509Z,52.72
2022-08-09T09:03:11.092Z,53.23
2022-08-09T09:06:00.680Z,51.64
2022-08-09T09:08:31.124Z,51.90
2022-08-09T09:11:03.810Z,49.30
2022-08-09T09:13:50.250Z,51.37
2022-08-09T09:16:31.204Z,49.53
2022-08-09T09:21:59.348Z,50.38
2022-08-09T09:24:29.075Z,48.72
2022-08-09T09:26:58.159Z,49.36
2022-08-09T09:30:11.437Z,49.47
2022-08-09T09:32:34.933Z,47.02
2022-08-09T09:35:15.652Z,49.13
2022-08-09T09:37:45.740Z,48.58
2022-08-09T09:40:13.106Z,48.12
2022-08-09T09:42:43.010Z,48.88
2022-08-09T09:45:14.374Z,47.11
2022-08-09T09:47:58.440Z,45.39
2022-08-09T09:50:49.617Z,47.13
2022-08-09T09:53:43.680Z,46.80
2022-08-09T09:56:19.978Z,46.52
2022-08-09T09:58:57.953Z,46.14
2022-08-09T10:01:30.868Z,45.95
2022-08-09T10:04:30.583Z,45.15
2022-08-09T10:06:58.002Z,45.48
2022-08-09T10:09:25.403Z,44.14
2022-08-09T10:12:12.965Z,45.40
2022-08-09T10:14:49.202Z,43.79
2022-08-09T10:17:39.854Z,44.22
2022-08-09T10:20:35.662Z,42.87
2022-08-09T10:23:20.371Z,44.62
2022-08-09T10:26:06.123Z,44.32
2022-08-09T10:28:35.412Z,41.92
2022-08-09T10:34:18.956Z,42.26
2022-08-09T10:36:38.530Z,42.52
2022-08-09T10:39:14.006Z,42.22
2022-08-09T10:41:47.758Z,42.15
2022-08-09T10:44:19.168Z,42.30
2022-08-09T10:48:12.099Z,42.70
2022-08-09T10:50:31.258Z,42.30
2022-08-09T10:53:10.067Z,41.71
2022-08-09T10:55:58.438Z,41.27
2022-08-09T10:58:34.915Z,40.54
2022-08-09T11:03:07.436Z,41.76
2022-08-09T11:04:20.051Z,41.67
2022-08-09T11:07:00.749Z,43.16
2022-08-09T11:09:47.705Z,41.00
2022-08-09T11:12:30.097Z,41.67
2022-08-09T11:15:01.502Z,41.05
2022-08-09T11:17:47.867Z,41.81
2022-08-09T11:20:43.198Z,41.57
2022-08-09T11:23:10.536Z,41.57
2022-08-09T11:25:47.988Z,42.21
2022-08-09T11:28:56.053Z,41.21
2022-08-09T11:31:49.802Z,41.67
2022-08-09T11:34:42.840Z,40.57
2022-08-09T11:37:18.352Z,41.38
2022-08-09T11:40:08.576Z,40.72
2022-08-09T11:42:48.550Z,40.77
2022-08-09T11:45:41.966Z,40.42
2022-08-09T11:48:19.383Z,40.91
2022-08-09T11:51:38.020Z,41.67
2022-08-09T11:54:01.041Z,40.97
2022-08-09T11:56:41.529Z,39.76
2022-08-09T11:59:30.490Z,39.92
2022-08-09T12:02:17.473Z,38.33
2022-08-09T12:04:47.203Z,39.34
2022-08-09T12:07:14.310Z,38.72
2022-08-09T12:09:50.272Z,38.71
2022-08-09T12:12:20.248Z,38.55
2022-08-09T12:15:04.044Z,37.81
2022-08-09T12:17:42.075Z,37.71
2022-08-09T12:20:21.983Z,36.79
2022-08-09T12:22:55.813Z,35.54
2022-08-09T12:25:35.894Z,35.20
2022-08-09T12:28:58.991Z,35.38
2022-08-09T12:31:10.695Z,34.62
2022-08-09T12:33:59.028Z,34.49
2022-08-09T12:36:32.388Z,35.25
2022-08-09T12:39:00.687Z,34.50
2022-08-09T12:41:36.270Z,34.19
2022-08-09T12:44:09.815Z,33.93
2022-08-09T12:46:39.580Z,34.03
2022-08-09T12:49:08.686Z,33.35
2022-08-09T12:52:00.423Z,31.99
2022-08-09T12:54:22.122Z,31.78
2022-08-09T12:56:54.393Z,32.60
2022-08-09T12:59:24.902Z,32.66
2022-08-09T13:02:11.342Z,30.66
2022-08-09T13:04:41.688Z,30.70
2022-08-09T13:07:19.282Z,32.54
2022-08-09T13:09:55.081Z,33.60
2022-08-09T13:12:23.079Z,32.92
2022-08-09T13:14:53.736Z,33.69
2022-08-09T13:17:22.077Z,33.43
2022-08-09T13:20:16.295Z,32.54
2022-08-09T13:23:05.215Z,34.08
2022-08-09T13:25:42.615Z,35.89
2022-08-09T13:28:24.374Z,37.58
2022-08-09T13:32:13.830Z,37.50
2022-08-09T13:33:55.135Z,38.08
2022-08-09T13:36:39.507Z,37.99
2022-08-09T13:41:17.113Z,35.34
2022-08-09T13:42:02.509Z,35.46
2022-08-09T13:44:30.395Z,36.14
2022-08-09T13:47:29.234Z,35.62
2022-08-09T13:49:58.187Z,35.41
2022-08-09T13:52:28.913Z,36.58
2022-08-09T13:54:59.834Z,38.67
2022-08-09T13:57:37.388Z,38.12
2022-08-09T14:00:18.066Z,38.03
2022-08-09T14:03:17.217Z,38.50
2022-08-09T14:05:58.313Z,37.88
2022-08-09T14:08:24.752Z,38.95
2022-08-09T14:10:53.879Z,38.41
2022-08-09T14:14:16.477Z,38.16
2022-08-09T14:16:14.251Z,38.06
2022-08-09T14:18:45.238Z,37.74
2022-08-09T14:21:20.544Z,38.55
2022-08-09T14:23:54.140Z,38.61
2022-08-09T14:26:31.854Z,39.70
2022-08-09T14:29:07.814Z,40.25
2022-08-09T14:31:53.689Z,39.95
2022-08-09T14:34:30.966Z,40.40
2022-08-09T14:36:58.993Z,40.77
2022-08-09T14:39:47.173Z,40.86
2022-08-09T14:42:12.416Z,41.62
2022-08-09T14:44:48.478Z,41.89
2022-08-09T14:47:39.856Z,42.71
2022-08-09T14:50:03.991Z,42.70
2022-08-09T14:52:30.586Z,42.12
2022-08-09T14:54:57.167Z,41.78
2022-08-09T14:57:31.823Z,42.58
2022-08-09T15:00:09.864Z,42.15
2022-08-09T15:02:36.545Z,42.32
2022-08-09T15:05:07.009Z,42.74
2022-08-09T15:07:35.509Z,42.95
2022-08-09T15:10:10.905Z,42.85
2022-08-09T15:12:37.984Z,43.59
2022-08-09T15:15:08.548Z,43.27
2022-08-09T15:17:42.120Z,43.51
2022-08-09T15:20:15.245Z,43.64
2022-08-09T15:23:56.113Z,43.73
2022-08-09T15:25:46.530Z,43.92
2022-08-09T15:28:27.523Z,43.97
2022-08-09T15:31:08.220Z,43.47
2022-08-09T15:34:17.992Z,43.62
2022-08-09T15:36:28.465Z,43.39
2022-08-09T15:38:57.079Z,43.86
2022-08-09T15:41:23.553Z,43.69
2022-08-09T15:44:00.206Z,44.90
2022-08-09T15:46:33.788Z,45.60
2022-08-09T15:49:21.831Z,44.23
2022-08-09T15:52:03.943Z,44.69
2022-08-09T15:54:48.969Z,44.71
2022-08-09T15:57:19.008Z,44.52
2022-08-09T16:00:01.855Z,44.00
2022-08-09T16:02:28.395Z,44.36
2022-08-09T16:04:55.575Z,44.42
2022-08-09T16:07:22.467Z,44.39
2022-08-09T16:10:04.097Z,44.73
2022-08-09T16:12:33.295Z,44.77
2022-08-09T16:15:01.130Z,44.45
2022-08-09T16:17:29.000Z,44.40
2022-08-09T16:20:04.924Z,44.99
2022-08-09T16:22:42.459Z,44.92
2022-08-09T16:25:15.864Z,45.13
2022-08-09T16:27:42.475Z,45.14
2022-08-09T16:30:15.085Z,46.77
2022-08-09T16:33:10.429Z,45.88
2022-08-09T16:35:57.582Z,43.66
2022-08-09T16:38:25.236Z,41.78
2022-08-09T16:40:51.938Z,42.65
2022-08-09T16:43:18.593Z,43.86
2022-08-09T16:45:48.079Z,44.78
2022-08-09T16:48:38.471Z,44.79
2022-08-09T16:51:07.694Z,44.66
2022-08-09T16:53:36.320Z,45.19
2022-08-09T16:56:09.897Z,45.49
2022-08-09T16:58:39.735Z,46.00
2022-08-09T17:01:09.870Z,46.06
2022-08-09T17:03:37.372Z,47.74
2022-08-09T17:06:26.017Z,46.67
2022-08-09T17:09:01.396Z,46.45
2022-08-09T17:11:41.789Z,46.50
2022-08-09T17:14:25.701Z,46.78
2022-08-09T17:16:59.783Z,46.87
2022-08-09T17:19:27.477Z,47.94
2022-08-09T17:22:13.455Z,47.36
2022-08-09T17:24:41.463Z,46.68
2022-08-09T17:27:15.383Z,47.09
2022-08-09T17:29:45.423Z,46.64
2022-08-09T17:32:15.653Z,46.91
2022-08-09T17:35:07.875Z,47.12
2022-08-09T17:37:29.864Z,47.55
2022-08-09T17:39:56.472Z,47.61
2022-08-09T17:42:42.197Z,48.72
2022-08-09T17:45:16.095Z,48.21
2022-08-09T17:47:55.871Z,48.21
2022-08-09T17:50:36.889Z,48.18
2022-08-09T17:53:19.208Z,48.77
2022-08-09T17:55:50.290Z,49.03
2022-08-09T17:58:19.169Z,49.31
2022-08-09T18:00:47.968Z,49.45
2022-08-09T18:03:17.676Z,50.25
2022-08-09T18:05:44.598Z,50.92
2022-08-09T18:08:13.329Z,50.41
2022-08-09T18:10:40.230Z,50.45
2022-08-09T18:13:39.089Z,49.96
2022-08-09T18:16:07.721Z,50.42
2022-08-09T18:18:42.887Z,51.50
2022-08-09T18:21:23.213Z,49.99
2022-08-09T18:24:09.944Z,50.92
2022-08-09T18:26:38.111Z,50.40
2022-08-09T18:30:39.000Z,51.20
2022-08-09T18:31:56.382Z,50.27
2022-08-09T18:34:24.140Z,50.53
2022-08-09T18:36:50.966Z,51.09
2022-08-09T18:39:22.258Z,51.17
2022-08-09T18:41:53.395Z,51.40
2022-08-09T18:44:25.315Z,51.95
2022-08-09T18:47:07.661Z,51.74
2022-08-09T18:49:41.563Z,51.76
2022-08-09T18:52:11.746Z,52.25
2022-08-09T18:54:38.924Z,52.16
2022-08-09T18:57:08.725Z,52.33
2022-08-09T18:59:37.363Z,53.13
2022-08-09T19:02:16.058Z,52.71
2022-08-09T19:04:47.320Z,53.59
2022-08-09T19:07:16.413Z,53.01
2022-08-09T19:10:14.436Z,53.20
2022-08-09T19:12:31.828Z,53.68
2022-08-09T19:15:00.454Z,54.11
2022-08-09T19:17:31.261Z,54.38
2022-08-09T19:20:06.666Z,54.48
2022-08-09T19:22:34.705Z,54.48
2022-08-09T19:25:09.710Z,54.38
2022-08-09T19:27:48.662Z,55.10
2022-08-09T19:30:24.743Z,55.26
2022-08-09T19:32:55.324Z,55.24
2022-08-09T19:35:26.346Z,55.31
2022-08-09T19:37:57.536Z,55.33
2022-08-09T19:40:33.409Z,55.58
2022-08-09T19:43:01.889Z,55.76
2022-08-09T19:45:38.865Z,56.02
2022-08-09T19:48:06.634Z,56.34
2022-08-09T19:50:49.271Z,56.50
2022-08-09T19:53:20.666Z,56.65
2022-08-09T19:56:02.044Z,57.20
2022-08-09T19:58:29.629Z,57.12
2022-08-09T20:00:57.686Z,57.09
2022-08-09T20:04:11.551Z,57.36
2022-08-09T20:06:23.256Z,57.03
2022-08-09T20:08:56.881Z,57.26
2022-08-09T20:11:26.161Z,57.80
2022-08-09T20:13:54.370Z,57.61
2022-08-09T20:16:35.535Z,58.29
2022-08-09T20:19:48.834Z,57.82
2022-08-09T20:21:56.909Z,58.00
2022-08-09T20:24:29.528Z,58.33
2022-08-09T20:27:01.073Z,58.08
2022-08-09T20:29:32.705Z,57.87
2022-08-09T20:32:40.168Z,57.92
2022-08-09T20:34:53.632Z,57.83
2022-08-09T20:37:21.435Z,57.80
2022-08-09T20:40:16.499Z,58.37
2022-08-09T20:42:37.690Z,58.38
2022-08-09T20:46:01.813Z,58.55
2022-08-09T20:47:51.853Z,58.72
2022-08-09T20:50:48.529Z,58.72
2022-08-09T20:53:04.874Z,58.81
2022-08-09T20:55:47.440Z,59.28
2022-08-09T20:58:32.593Z,59.23
2022-08-09T21:01:13.689Z,59.38
2022-08-09T21:05:48.148Z,59.66
2022-08-09T21:06:35.116Z,60.20
2022-08-09T21:09:02.705Z,60.19
2022-08-09T21:14:17.349Z,60.35
2022-08-09T21:16:45.637Z,60.67
2022-08-09T21:20:17.007Z,60.75
2022-08-09T21:21:59.489Z,60.59
2022-08-09T21:24:28.902Z,60.78
2022-08-09T21:26:59.446Z,61.07
2022-08-09T21:29:25.962Z,61.03
2022-08-09T21:31:53.354Z,61.13
2022-08-09T21:34:29.073Z,61.30
2022-08-09T21:36:56.381Z,61.67
2022-08-09T21:39:28.232Z,61.00
2022-08-09T21:42:10.651Z,61.35
2022-08-09T21:44:37.905Z,61.24
2022-08-09T21:47:08.677Z,61.32
2022-08-09T21:49:42.988Z,61.41
2022-08-09T21:52:14.998Z,61.26
2022-08-09T21:55:03.072Z,61.36
2022-08-09T21:57:39.218Z,61.44
2022-08-09T22:00:31.821Z,61.85
2022-08-09T22:03:02.303Z,61.84
2022-08-09T22:05:37.322Z,62.08
2022-08-09T22:08:13.103Z,62.06
2022-08-09T22:11:49.108Z,62.23
2022-08-09T22:13:34.746Z,61.87
2022-08-09T22:16:09.074Z,62.05
2022-08-09T22:18:52.204Z,62.27
2022-08-09T22:21:24.498Z,62.30
2022-08-09T22:24:01.570Z,62.67
2022-08-09T22:26:35.104Z,62.95
2022-08-09T22:29:07.065Z,62.68
2022-08-09T22:31:35.752Z,62.71
2022-08-09T22:34:02.823Z,62.60
2022-08-09T22:36:29.369Z,62.91
2022-08-09T22:39:20.830Z,63.03
2022-08-09T22:41:58.929Z,63.21
2022-08-09T22:44:32.857Z,63.61
2022-08-09T22:48:11.471Z,63.50
2022-08-09T22:49:47.181Z,63.36
2022-08-09T22:52:15.635Z,63.30
2022-08-09T22:54:42.319Z,63.56
2022-08-09T22:57:13.550Z,63.56
2022-08-09T22:59:57.702Z,63.70
2022-08-09T23:02:25.188Z,63.80
2022-08-09T23:04:53.724Z,64.12
2022-08-09T23:08:23.173Z,63.92
2022-08-09T23:10:27.477Z,64.13
2022-08-09T23:12:53.950Z,63.89
2022-08-09T23:15:20.494Z,63.67
2022-08-09T23:17:47.082Z,63.89
2022-08-09T23:20:13.746Z,63.98
2022-08-09T23:22:40.400Z,63.96
2022-08-09T23:25:07.346Z,63.98
2022-08-09T23:27:34.384Z,63.86
2022-08-09T23:30:01.003Z,63.92
2022-08-09T23:32:27.512Z,64.02
2022-08-09T23:34:54.019Z,64.15
2022-08-09T23:37:22.683Z,64.44
2022-08-09T23:39:52.104Z,64.43
2022-08-09T23:42:18.695Z,64.39
2022-08-09T23:44:45.270Z,64.81
2022-08-09T23:47:11.829Z,64.86
2022-08-09T23:49:38.366Z,64.79
2022-08-09T23:52:05.132Z,64.92
2022-08-09T23:54:31.681Z,64.71
2022-08-09T23:56:58.676Z,64.54
2022-08-09T23:59:25.704Z,64.80
